EWG5LC LOWS-LEBL
Flight info
| Callsign | EWG5LC |
|---|---|
| Flight time | 1h 49m |
| Altitude | 35000 |
| Route | DETSA DCT DIBAX DCT NESTI DCT KEMMI DCT GEKBA DCT VAMTU DCT KOLON DCT GANGU DCT PADKO DCT DIVKO DCT NILDU DCT BISBA |
| Aircraft | A320/M-SDE3FGHIRWY/LB1 |
Departure
| Time | 2026-05-04 14:42 |
|---|---|
| Airport | Salzburg Airport (LOWS) |
Arrival
| Time | 2026-05-04 16:31 |
|---|---|
| Airport | Josep Tarradellas Barcelona-El Prat Airport (LEBL) |
| Time | Latitude | Longitude | Altitude | Speed | Heading |
|---|---|---|---|---|---|
| 2026-05-04 14:12 | 47.79091 | 12.99956 | 1420 ft | 0 kts | 282° |
| 2026-05-04 14:36 | 47.79099 | 12.99959 | 1422 ft | 2 kts | 27° |
| 2026-05-04 14:37 | 47.79109 | 12.99996 | 1421 ft | 5 kts | 64° |
| 2026-05-04 14:37 | 47.79126 | 13.00036 | 1422 ft | 4 kts | 36° |
| 2026-05-04 14:37 | 47.79183 | 13.00011 | 1420 ft | 11 kts | 337° |
| 2026-05-04 14:37 | 47.79259 | 12.99964 | 1420 ft | 12 kts | 337° |
| 2026-05-04 14:38 | 47.79334 | 12.99985 | 1421 ft | 12 kts | 60° |
| 2026-05-04 14:38 | 47.79379 | 13.00092 | 1420 ft | 12 kts | 17° |
| 2026-05-04 14:38 | 47.79461 | 13.00048 | 1420 ft | 14 kts | 337° |
| 2026-05-04 14:38 | 47.79558 | 12.99988 | 1420 ft | 15 kts | 337° |
| 2026-05-04 14:39 | 47.79624 | 12.99945 | 1420 ft | 16 kts | 336° |
| 2026-05-04 14:39 | 47.79730 | 12.99878 | 1420 ft | 17 kts | 337° |
| 2026-05-04 14:39 | 47.79842 | 12.99808 | 1420 ft | 18 kts | 338° |
| 2026-05-04 14:40 | 47.80079 | 12.99657 | 1420 ft | 19 kts | 336° |
| 2026-05-04 14:40 | 47.80196 | 12.99598 | 1420 ft | 14 kts | 10° |
| 2026-05-04 14:40 | 47.80246 | 12.99613 | 1421 ft | 0 kts | 27° |
| 2026-05-04 14:41 | 47.80265 | 12.99640 | 1421 ft | 10 kts | 56° |
| 2026-05-04 14:41 | 47.80287 | 12.99750 | 1421 ft | 12 kts | 74° |
| 2026-05-04 14:41 | 47.80127 | 12.99893 | 1421 ft | 42 kts | 158° |
| 2026-05-04 14:42 | 47.78727 | 13.00783 | 1422 ft | 165 kts | 156° |
| 2026-05-04 14:42 | 47.77613 | 13.01480 | 1897 ft | 174 kts | 152° |
| 2026-05-04 14:42 | 47.76560 | 13.02462 | 2496 ft | 185 kts | 143° |
| 2026-05-04 14:43 | 47.75469 | 13.03563 | 2978 ft | 198 kts | 143° |
| 2026-05-04 14:43 | 47.74304 | 13.04755 | 3350 ft | 211 kts | 144° |
| 2026-05-04 14:43 | 47.73050 | 13.06099 | 3659 ft | 232 kts | 142° |
| 2026-05-04 14:43 | 47.71682 | 13.07616 | 4022 ft | 257 kts | 142° |
| 2026-05-04 14:44 | 47.70150 | 13.09130 | 4685 ft | 269 kts | 149° |
| 2026-05-04 14:44 | 47.68484 | 13.10464 | 5538 ft | 273 kts | 153° |
| 2026-05-04 14:44 | 47.66759 | 13.11699 | 6391 ft | 277 kts | 155° |
| 2026-05-04 14:44 | 47.65001 | 13.12891 | 7225 ft | 279 kts | 157° |
| 2026-05-04 14:45 | 47.63233 | 13.14087 | 8129 ft | 280 kts | 157° |
| 2026-05-04 14:45 | 47.61523 | 13.15502 | 9015 ft | 285 kts | 145° |
| 2026-05-04 14:45 | 47.60079 | 13.17550 | 9735 ft | 291 kts | 135° |
| 2026-05-04 14:45 | 47.58470 | 13.19310 | 10299 ft | 291 kts | 161° |
| 2026-05-04 14:46 | 47.56423 | 13.19713 | 10551 ft | 309 kts | 188° |
| 2026-05-04 14:46 | 47.54338 | 13.18657 | 10881 ft | 327 kts | 212° |
| 2026-05-04 14:46 | 47.52612 | 13.16427 | 11505 ft | 333 kts | 226° |
| 2026-05-04 14:46 | 47.50997 | 13.13942 | 12218 ft | 337 kts | 226° |
| 2026-05-04 14:47 | 47.49366 | 13.11429 | 12941 ft | 341 kts | 226° |
| 2026-05-04 14:47 | 47.47707 | 13.08864 | 13685 ft | 344 kts | 226° |
| 2026-05-04 14:47 | 47.46060 | 13.06315 | 14305 ft | 346 kts | 225° |
| 2026-05-04 14:47 | 47.44394 | 13.03743 | 14922 ft | 348 kts | 225° |
| 2026-05-04 14:48 | 47.42734 | 13.01184 | 15483 ft | 351 kts | 225° |
| 2026-05-04 14:48 | 47.41034 | 12.98565 | 16104 ft | 355 kts | 225° |
| 2026-05-04 14:48 | 47.39319 | 12.95926 | 16726 ft | 357 kts | 225° |
| 2026-05-04 14:48 | 47.37591 | 12.93277 | 17366 ft | 360 kts | 225° |
| 2026-05-04 14:49 | 47.35851 | 12.90610 | 17940 ft | 363 kts | 225° |
| 2026-05-04 14:49 | 47.34088 | 12.87906 | 18500 ft | 367 kts | 225° |
| 2026-05-04 14:49 | 47.32295 | 12.85159 | 18998 ft | 369 kts | 225° |
| 2026-05-04 14:49 | 47.30527 | 12.82451 | 19499 ft | 372 kts | 225° |
| 2026-05-04 14:50 | 47.28729 | 12.79699 | 20001 ft | 375 kts | 226° |
| 2026-05-04 14:50 | 47.26915 | 12.76923 | 20498 ft | 378 kts | 226° |
| 2026-05-04 14:50 | 47.25087 | 12.74124 | 20961 ft | 381 kts | 226° |
| 2026-05-04 14:50 | 47.23240 | 12.71299 | 21442 ft | 383 kts | 226° |
| 2026-05-04 14:51 | 47.21381 | 12.68461 | 21894 ft | 386 kts | 226° |
| 2026-05-04 14:51 | 47.19507 | 12.65604 | 22383 ft | 389 kts | 226° |
| 2026-05-04 14:51 | 47.17627 | 12.62740 | 22871 ft | 391 kts | 226° |
| 2026-05-04 14:51 | 47.15730 | 12.59855 | 23279 ft | 393 kts | 226° |
| 2026-05-04 14:52 | 47.13816 | 12.56955 | 23718 ft | 395 kts | 226° |
| 2026-05-04 14:52 | 47.11895 | 12.54054 | 24099 ft | 398 kts | 226° |
| 2026-05-04 14:52 | 47.09956 | 12.51129 | 24489 ft | 400 kts | 226° |
| 2026-05-04 14:52 | 47.08011 | 12.48193 | 24815 ft | 402 kts | 226° |
| 2026-05-04 14:53 | 47.06058 | 12.45245 | 25218 ft | 404 kts | 226° |
| 2026-05-04 14:53 | 47.04097 | 12.42287 | 25584 ft | 405 kts | 226° |
| 2026-05-04 14:53 | 47.02126 | 12.39315 | 25972 ft | 407 kts | 226° |
| 2026-05-04 14:53 | 47.00145 | 12.36329 | 26347 ft | 409 kts | 226° |
| 2026-05-04 14:54 | 46.98149 | 12.33327 | 26737 ft | 411 kts | 226° |
| 2026-05-04 14:54 | 46.96181 | 12.30364 | 27090 ft | 413 kts | 226° |
| 2026-05-04 14:54 | 46.94170 | 12.27338 | 27424 ft | 415 kts | 226° |
| 2026-05-04 14:54 | 46.92146 | 12.24302 | 27760 ft | 417 kts | 226° |
| 2026-05-04 14:55 | 46.90111 | 12.21258 | 28103 ft | 419 kts | 225° |
| 2026-05-04 14:55 | 46.88060 | 12.18201 | 28440 ft | 421 kts | 225° |
| 2026-05-04 14:55 | 46.86000 | 12.15131 | 28747 ft | 423 kts | 225° |
| 2026-05-04 14:55 | 46.83935 | 12.12054 | 29063 ft | 426 kts | 225° |
| 2026-05-04 14:56 | 46.81856 | 12.08957 | 29368 ft | 428 kts | 225° |
| 2026-05-04 14:56 | 46.79768 | 12.05848 | 29667 ft | 430 kts | 225° |
| 2026-05-04 14:56 | 46.77668 | 12.02728 | 29953 ft | 432 kts | 225° |
| 2026-05-04 14:56 | 46.75561 | 11.99594 | 30223 ft | 433 kts | 225° |
| 2026-05-04 14:57 | 46.73445 | 11.96454 | 30444 ft | 435 kts | 225° |
| 2026-05-04 14:57 | 46.71322 | 11.93308 | 30703 ft | 436 kts | 225° |
| 2026-05-04 14:57 | 46.69192 | 11.90157 | 30967 ft | 437 kts | 225° |
| 2026-05-04 14:57 | 46.67089 | 11.87056 | 31326 ft | 435 kts | 225° |
| 2026-05-04 14:58 | 46.64968 | 11.83932 | 31700 ft | 433 kts | 225° |
| 2026-05-04 14:58 | 46.62857 | 11.80819 | 32045 ft | 431 kts | 225° |
| 2026-05-04 14:58 | 46.60749 | 11.77710 | 32391 ft | 430 kts | 225° |
| 2026-05-04 14:58 | 46.58649 | 11.74616 | 32743 ft | 428 kts | 225° |
| 2026-05-04 14:59 | 46.56557 | 11.71540 | 33098 ft | 427 kts | 225° |
| 2026-05-04 14:59 | 46.54458 | 11.68462 | 33437 ft | 426 kts | 225° |
| 2026-05-04 14:59 | 46.50288 | 11.62359 | 34061 ft | 425 kts | 225° |
| 2026-05-04 15:00 | 46.48212 | 11.59318 | 34331 ft | 424 kts | 225° |
| 2026-05-04 15:00 | 46.46160 | 11.56314 | 34609 ft | 423 kts | 225° |
| 2026-05-04 15:00 | 46.44085 | 11.53286 | 34866 ft | 423 kts | 225° |
| 2026-05-04 15:01 | 46.39944 | 11.47267 | 35005 ft | 419 kts | 225° |
| 2026-05-04 15:01 | 46.37887 | 11.44280 | 35008 ft | 418 kts | 225° |
| 2026-05-04 15:01 | 46.33786 | 11.38324 | 35009 ft | 417 kts | 225° |
| 2026-05-04 15:02 | 46.29682 | 11.32386 | 35191 ft | 417 kts | 225° |
| 2026-05-04 15:02 | 46.25581 | 11.26472 | 35204 ft | 416 kts | 225° |
| 2026-05-04 15:03 | 46.21485 | 11.20568 | 35203 ft | 415 kts | 225° |
| 2026-05-04 15:03 | 46.17391 | 11.14679 | 35198 ft | 416 kts | 225° |
| 2026-05-04 15:04 | 46.13290 | 11.08804 | 35180 ft | 416 kts | 225° |
| 2026-05-04 15:04 | 46.09654 | 11.02351 | 35159 ft | 415 kts | 235° |
| 2026-05-04 15:05 | 46.06377 | 10.95574 | 35131 ft | 415 kts | 235° |
| 2026-05-04 15:05 | 46.03065 | 10.88769 | 35115 ft | 415 kts | 235° |
| 2026-05-04 15:06 | 45.99738 | 10.81978 | 35096 ft | 415 kts | 235° |
| 2026-05-04 15:07 | 45.94749 | 10.71808 | 35091 ft | 414 kts | 235° |
| 2026-05-04 15:07 | 45.91425 | 10.65041 | 35089 ft | 415 kts | 235° |
| 2026-05-04 15:08 | 45.88092 | 10.58281 | 35093 ft | 415 kts | 235° |
| 2026-05-04 15:08 | 45.84761 | 10.51530 | 35088 ft | 415 kts | 235° |
| 2026-05-04 15:09 | 45.81425 | 10.44783 | 35092 ft | 414 kts | 235° |
| 2026-05-04 15:09 | 45.77742 | 10.38419 | 35087 ft | 415 kts | 229° |
| 2026-05-04 15:10 | 45.71989 | 10.29158 | 35074 ft | 415 kts | 230° |
| 2026-05-04 15:11 | 45.66234 | 10.19915 | 35066 ft | 415 kts | 230° |
| 2026-05-04 15:11 | 45.62411 | 10.13805 | 35067 ft | 414 kts | 230° |
| 2026-05-04 15:12 | 45.58571 | 10.07668 | 35069 ft | 414 kts | 230° |
| 2026-05-04 15:12 | 45.54741 | 10.01545 | 35072 ft | 414 kts | 230° |
| 2026-05-04 15:13 | 45.50901 | 9.95429 | 35079 ft | 413 kts | 230° |
| 2026-05-04 15:13 | 45.47059 | 9.89339 | 35091 ft | 413 kts | 230° |
| 2026-05-04 15:14 | 45.43218 | 9.83260 | 35090 ft | 412 kts | 230° |
| 2026-05-04 15:14 | 45.39380 | 9.77200 | 35131 ft | 412 kts | 230° |
| 2026-05-04 15:15 | 45.35547 | 9.71160 | 35131 ft | 411 kts | 230° |
| 2026-05-04 15:15 | 45.31712 | 9.65124 | 35125 ft | 411 kts | 230° |
| 2026-05-04 15:16 | 45.25952 | 9.56088 | 35087 ft | 411 kts | 230° |
| 2026-05-04 15:17 | 45.20196 | 9.47069 | 35088 ft | 411 kts | 229° |
| 2026-05-04 15:17 | 45.14426 | 9.38097 | 35096 ft | 410 kts | 229° |
| 2026-05-04 15:18 | 45.10615 | 9.32179 | 35098 ft | 409 kts | 229° |
| 2026-05-04 15:19 | 45.04865 | 9.23262 | 35110 ft | 408 kts | 230° |
| 2026-05-04 15:19 | 44.99123 | 9.14392 | 35115 ft | 407 kts | 229° |
| 2026-05-04 15:20 | 44.95301 | 9.08502 | 35116 ft | 406 kts | 229° |
| 2026-05-04 15:20 | 44.91487 | 9.02642 | 35109 ft | 405 kts | 229° |
| 2026-05-04 15:21 | 44.87677 | 8.96791 | 35107 ft | 404 kts | 229° |
| 2026-05-04 15:22 | 44.81973 | 8.88059 | 35106 ft | 403 kts | 229° |
| 2026-05-04 15:22 | 44.76485 | 8.79125 | 35102 ft | 400 kts | 238° |
| 2026-05-04 15:23 | 44.73384 | 8.72619 | 35103 ft | 400 kts | 237° |
| 2026-05-04 15:23 | 44.70785 | 8.67232 | 35100 ft | 400 kts | 237° |
| 2026-05-04 15:24 | 44.64540 | 8.54336 | 35109 ft | 399 kts | 237° |
| 2026-05-04 15:25 | 44.61421 | 8.47897 | 35112 ft | 398 kts | 237° |
| 2026-05-04 15:26 | 44.56739 | 8.38267 | 35108 ft | 397 kts | 237° |
| 2026-05-04 15:26 | 44.52085 | 8.28726 | 35109 ft | 397 kts | 237° |
| 2026-05-04 15:27 | 44.47412 | 8.19176 | 35111 ft | 396 kts | 237° |
| 2026-05-04 15:28 | 44.42736 | 8.09660 | 35111 ft | 395 kts | 237° |
| 2026-05-04 15:29 | 44.38070 | 8.00174 | 35123 ft | 394 kts | 237° |
| 2026-05-04 15:30 | 44.27129 | 7.78274 | 35123 ft | 393 kts | 231° |
| 2026-05-04 15:31 | 44.21081 | 7.70566 | 35111 ft | 394 kts | 224° |
| 2026-05-04 15:32 | 44.11306 | 7.57342 | 35109 ft | 390 kts | 231° |
| 2026-05-04 15:34 | 44.02436 | 7.43154 | 35102 ft | 388 kts | 231° |
| 2026-05-04 15:34 | 43.97124 | 7.34690 | 35096 ft | 386 kts | 231° |
| 2026-05-04 15:35 | 43.91828 | 7.26278 | 35091 ft | 385 kts | 231° |
| 2026-05-04 15:36 | 43.86544 | 7.17917 | 35077 ft | 384 kts | 231° |
| 2026-05-04 15:36 | 43.83023 | 7.12371 | 35078 ft | 383 kts | 231° |
| 2026-05-04 15:37 | 43.79509 | 7.06837 | 35075 ft | 382 kts | 231° |
| 2026-05-04 15:37 | 43.76001 | 7.01319 | 35081 ft | 382 kts | 231° |
| 2026-05-04 15:38 | 43.72622 | 6.95736 | 35074 ft | 379 kts | 238° |
| 2026-05-04 15:38 | 43.70384 | 6.89180 | 35071 ft | 378 kts | 248° |
| 2026-05-04 15:39 | 43.68400 | 6.82409 | 35069 ft | 377 kts | 247° |
| 2026-05-04 15:40 | 43.65437 | 6.72374 | 35069 ft | 377 kts | 247° |
| 2026-05-04 15:40 | 43.63447 | 6.65671 | 35071 ft | 377 kts | 247° |
| 2026-05-04 15:41 | 43.61464 | 6.58982 | 35069 ft | 377 kts | 247° |
| 2026-05-04 15:41 | 43.59473 | 6.52295 | 35067 ft | 377 kts | 246° |
| 2026-05-04 15:42 | 43.57475 | 6.45605 | 35066 ft | 377 kts | 246° |
| 2026-05-04 15:42 | 43.55476 | 6.38935 | 35065 ft | 376 kts | 246° |
| 2026-05-04 15:43 | 43.53473 | 6.32264 | 35065 ft | 376 kts | 246° |
| 2026-05-04 15:43 | 43.51470 | 6.25595 | 35063 ft | 376 kts | 246° |
| 2026-05-04 15:44 | 43.49476 | 6.18978 | 35059 ft | 376 kts | 246° |
| 2026-05-04 15:44 | 43.47462 | 6.12324 | 35057 ft | 376 kts | 246° |
| 2026-05-04 15:45 | 43.45437 | 6.05664 | 35052 ft | 376 kts | 246° |
| 2026-05-04 15:45 | 43.43413 | 5.99012 | 35043 ft | 377 kts | 246° |
| 2026-05-04 15:46 | 43.41389 | 5.92361 | 35037 ft | 377 kts | 246° |
| 2026-05-04 15:46 | 43.39363 | 5.85719 | 35033 ft | 377 kts | 245° |
| 2026-05-04 15:47 | 43.37327 | 5.79072 | 35025 ft | 377 kts | 245° |
| 2026-05-04 15:47 | 43.35287 | 5.72426 | 35023 ft | 377 kts | 245° |
| 2026-05-04 15:48 | 43.33257 | 5.65834 | 35020 ft | 377 kts | 245° |
| 2026-05-04 15:48 | 43.30176 | 5.55865 | 35015 ft | 377 kts | 245° |
| 2026-05-04 15:49 | 43.28124 | 5.49233 | 35010 ft | 377 kts | 245° |
| 2026-05-04 15:49 | 43.26065 | 5.42597 | 35008 ft | 378 kts | 245° |
| 2026-05-04 15:50 | 43.23999 | 5.35975 | 35006 ft | 378 kts | 245° |
| 2026-05-04 15:50 | 43.21931 | 5.29352 | 35004 ft | 378 kts | 245° |
| 2026-05-04 15:51 | 43.19862 | 5.22731 | 35005 ft | 378 kts | 245° |
| 2026-05-04 15:51 | 43.17787 | 5.16127 | 35002 ft | 378 kts | 245° |
| 2026-05-04 15:52 | 43.15705 | 5.09523 | 34995 ft | 378 kts | 245° |
| 2026-05-04 15:52 | 43.13620 | 5.02921 | 34994 ft | 377 kts | 245° |
| 2026-05-04 15:53 | 43.11536 | 4.96323 | 34986 ft | 377 kts | 245° |
| 2026-05-04 15:53 | 43.09458 | 4.89770 | 34979 ft | 378 kts | 244° |
| 2026-05-04 15:54 | 43.07360 | 4.83187 | 34967 ft | 377 kts | 244° |
| 2026-05-04 15:54 | 43.04784 | 4.76983 | 34961 ft | 376 kts | 230° |
| 2026-05-04 15:55 | 43.00976 | 4.72074 | 34957 ft | 377 kts | 223° |
| 2026-05-04 15:55 | 42.97047 | 4.67334 | 34955 ft | 377 kts | 223° |
| 2026-05-04 15:56 | 42.93122 | 4.62589 | 34951 ft | 377 kts | 223° |
| 2026-05-04 15:56 | 42.89194 | 4.57852 | 34955 ft | 377 kts | 223° |
| 2026-05-04 15:57 | 42.85258 | 4.53114 | 34936 ft | 377 kts | 223° |
| 2026-05-04 15:57 | 42.81321 | 4.48390 | 34937 ft | 377 kts | 223° |
| 2026-05-04 15:58 | 42.77413 | 4.43694 | 34935 ft | 377 kts | 223° |
| 2026-05-04 15:58 | 42.73452 | 4.38969 | 34813 ft | 382 kts | 223° |
| 2026-05-04 15:59 | 42.71451 | 4.36585 | 34564 ft | 382 kts | 223° |
| 2026-05-04 15:59 | 42.69452 | 4.34198 | 34330 ft | 380 kts | 223° |
| 2026-05-04 15:59 | 42.67472 | 4.31831 | 34091 ft | 378 kts | 223° |
| 2026-05-04 15:59 | 42.65499 | 4.29475 | 33838 ft | 376 kts | 222° |
| 2026-05-04 16:00 | 42.63557 | 4.27161 | 33563 ft | 375 kts | 222° |
| 2026-05-04 16:00 | 42.61602 | 4.24840 | 33304 ft | 373 kts | 222° |
| 2026-05-04 16:00 | 42.59645 | 4.22521 | 33029 ft | 372 kts | 222° |
| 2026-05-04 16:00 | 42.57696 | 4.20209 | 32756 ft | 371 kts | 222° |
| 2026-05-04 16:01 | 42.55762 | 4.17912 | 32484 ft | 370 kts | 222° |
| 2026-05-04 16:01 | 42.53826 | 4.15611 | 32235 ft | 369 kts | 221° |
| 2026-05-04 16:01 | 42.51901 | 4.13326 | 31982 ft | 367 kts | 221° |
| 2026-05-04 16:01 | 42.49982 | 4.11049 | 31719 ft | 366 kts | 221° |
| 2026-05-04 16:02 | 42.48094 | 4.08815 | 31470 ft | 364 kts | 221° |
| 2026-05-04 16:02 | 42.46187 | 4.06562 | 31216 ft | 363 kts | 221° |
| 2026-05-04 16:02 | 42.42384 | 4.02080 | 30711 ft | 361 kts | 221° |
| 2026-05-04 16:03 | 42.40489 | 3.99851 | 30472 ft | 360 kts | 221° |
| 2026-05-04 16:03 | 42.38600 | 3.97627 | 30229 ft | 360 kts | 221° |
| 2026-05-04 16:03 | 42.36714 | 3.95407 | 29979 ft | 359 kts | 221° |
| 2026-05-04 16:03 | 42.34830 | 3.93188 | 29706 ft | 359 kts | 221° |
| 2026-05-04 16:04 | 42.32953 | 3.90983 | 29443 ft | 358 kts | 221° |
| 2026-05-04 16:04 | 42.29202 | 3.86583 | 28864 ft | 357 kts | 221° |
| 2026-05-04 16:04 | 42.27328 | 3.84393 | 28600 ft | 356 kts | 221° |
| 2026-05-04 16:05 | 42.25459 | 3.82207 | 28327 ft | 355 kts | 221° |
| 2026-05-04 16:05 | 42.23594 | 3.80026 | 28058 ft | 354 kts | 221° |
| 2026-05-04 16:05 | 42.19871 | 3.75670 | 27530 ft | 353 kts | 221° |
| 2026-05-04 16:06 | 42.18017 | 3.73502 | 27258 ft | 351 kts | 221° |
| 2026-05-04 16:06 | 42.13179 | 3.67861 | 26070 ft | 341 kts | 221° |
| 2026-05-04 16:07 | 42.10794 | 3.65087 | 25476 ft | 337 kts | 221° |
| 2026-05-04 16:07 | 42.05765 | 3.58535 | 24329 ft | 341 kts | 226° |
| 2026-05-04 16:08 | 42.04133 | 3.56253 | 23992 ft | 342 kts | 226° |
| 2026-05-04 16:08 | 41.99192 | 3.49387 | 22906 ft | 339 kts | 226° |
| 2026-05-04 16:09 | 41.95928 | 3.44840 | 22247 ft | 336 kts | 226° |
| 2026-05-04 16:09 | 41.92695 | 3.40347 | 21581 ft | 333 kts | 226° |
| 2026-05-04 16:10 | 41.90003 | 3.36612 | 21027 ft | 331 kts | 226° |
| 2026-05-04 16:11 | 41.85252 | 3.30020 | 20032 ft | 327 kts | 226° |
| 2026-05-04 16:11 | 41.83673 | 3.27835 | 19713 ft | 326 kts | 226° |
| 2026-05-04 16:12 | 41.74001 | 3.14499 | 17689 ft | 318 kts | 226° |
| 2026-05-04 16:13 | 41.70932 | 3.10279 | 17056 ft | 314 kts | 226° |
| 2026-05-04 16:13 | 41.67896 | 3.06101 | 16430 ft | 311 kts | 226° |
| 2026-05-04 16:14 | 41.64683 | 3.02297 | 15768 ft | 309 kts | 211° |
| 2026-05-04 16:14 | 41.60765 | 2.99818 | 14924 ft | 309 kts | 206° |
| 2026-05-04 16:15 | 41.54871 | 2.96846 | 13928 ft | 300 kts | 208° |
| 2026-05-04 16:16 | 41.51147 | 2.94390 | 13154 ft | 297 kts | 208° |
| 2026-05-04 16:16 | 41.45628 | 2.90727 | 11983 ft | 293 kts | 207° |
| 2026-05-04 16:17 | 41.42004 | 2.88321 | 11429 ft | 286 kts | 207° |
| 2026-05-04 16:18 | 41.37650 | 2.83428 | 10631 ft | 272 kts | 226° |
| 2026-05-04 16:18 | 41.36359 | 2.81598 | 10296 ft | 270 kts | 226° |
| 2026-05-04 16:19 | 41.32508 | 2.76151 | 9207 ft | 268 kts | 226° |
| 2026-05-04 16:19 | 41.29985 | 2.72535 | 8429 ft | 266 kts | 233° |
| 2026-05-04 16:20 | 41.30521 | 2.65747 | 7497 ft | 276 kts | 316° |
| 2026-05-04 16:20 | 41.34047 | 2.64414 | 7212 ft | 267 kts | 0° |
| 2026-05-04 16:21 | 41.39488 | 2.64879 | 6488 ft | 257 kts | 2° |
| 2026-05-04 16:22 | 41.42965 | 2.64411 | 5991 ft | 250 kts | 334° |
| 2026-05-04 16:22 | 41.45376 | 2.58909 | 5236 ft | 234 kts | 275° |
| 2026-05-04 16:23 | 41.44979 | 2.52831 | 4485 ft | 215 kts | 243° |
| 2026-05-04 16:24 | 41.42579 | 2.45728 | 3473 ft | 207 kts | 243° |
| 2026-05-04 16:25 | 41.41399 | 2.42232 | 3045 ft | 205 kts | 244° |
| 2026-05-04 16:26 | 41.39040 | 2.35261 | 2998 ft | 210 kts | 244° |
| 2026-05-04 16:26 | 41.37380 | 2.30360 | 2993 ft | 169 kts | 243° |
| 2026-05-04 16:27 | 41.36462 | 2.27658 | 2782 ft | 159 kts | 243° |
| 2026-05-04 16:28 | 41.35044 | 2.23490 | 2154 ft | 166 kts | 243° |
| 2026-05-04 16:28 | 41.33605 | 2.19265 | 1473 ft | 166 kts | 243° |
| 2026-05-04 16:29 | 41.31860 | 2.14147 | 674 ft | 139 kts | 243° |
| 2026-05-04 16:30 | 41.30820 | 2.11073 | 201 ft | 134 kts | 244° |
| 2026-05-04 16:31 | 41.30083 | 2.08951 | 18 ft | 102 kts | 245° |
| 2026-05-04 16:31 | 41.29958 | 2.08043 | 20 ft | 2 kts | 327° |
| 2026-05-04 16:32 | 41.29957 | 2.07856 | 17 ft | 15 kts | 246° |
| 2026-05-04 16:33 | 41.30011 | 2.07684 | 18 ft | 9 kts | 324° |
| 2026-05-04 16:33 | 41.30073 | 2.07588 | 20 ft | 8 kts | 306° |
| 2026-05-04 16:34 | 41.30102 | 2.07534 | 21 ft | 0 kts | 304° |